createdAt,value
2018-12-04T00:03:57.714Z,3.03
2018-12-04T00:08:18.271Z,2.83
2018-12-04T00:12:35.711Z,2.83
2018-12-04T00:17:01.538Z,2.13
2018-12-04T00:21:13.794Z,2.07
2018-12-04T00:25:30.712Z,2.83
2018-12-04T00:30:06.037Z,3.63
2018-12-04T00:34:23.903Z,3.13
2018-12-04T00:39:01.873Z,2.40
2018-12-04T00:43:27.773Z,2.33
2018-12-04T00:47:53.043Z,2.00
2018-12-04T00:52:27.110Z,2.23
2018-12-04T00:57:05.845Z,3.00
2018-12-04T01:01:19.498Z,2.10
2018-12-04T01:05:31.274Z,1.70
2018-12-04T01:09:46.095Z,1.80
2018-12-04T01:14:09.399Z,1.83
2018-12-04T01:18:21.258Z,2.20
2018-12-04T01:22:51.306Z,2.10
2018-12-04T01:27:02.930Z,2.70
2018-12-04T01:31:27.748Z,2.40
2018-12-04T01:35:56.759Z,2.00
2018-12-04T01:40:11.229Z,2.37
2018-12-04T01:44:21.984Z,2.17
2018-12-04T01:48:34.943Z,2.40
2018-12-04T01:52:50.850Z,3.17
2018-12-04T01:57:02.510Z,1.97
2018-12-04T02:01:24.918Z,2.60
2018-12-04T02:06:04.825Z,1.93
2018-12-04T02:09:51.333Z,2.23
2018-12-04T02:14:18.731Z,2.50
2018-12-04T02:18:41.602Z,2.07
2018-12-04T02:23:07.011Z,2.63
2018-12-04T02:27:19.978Z,1.87
2018-12-04T02:31:37.237Z,2.47
2018-12-04T02:36:00.508Z,2.23
2018-12-04T02:40:14.004Z,2.60
2018-12-04T02:44:26.709Z,2.00
2018-12-04T02:48:40.349Z,2.57
2018-12-04T02:52:54.436Z,2.23
2018-12-04T02:57:17.007Z,2.10
2018-12-04T03:01:39.588Z,1.73
2018-12-04T03:05:59.336Z,2.10
2018-12-04T03:10:43.064Z,1.93
2018-12-04T03:15:29.087Z,2.00
2018-12-04T03:20:27.628Z,2.17
2018-12-04T03:24:38.658Z,2.30
2018-12-04T03:28:54.962Z,2.53
2018-12-04T03:33:20.544Z,2.70
2018-12-04T03:37:28.329Z,2.53
2018-12-04T03:41:36.107Z,2.63
2018-12-04T03:45:44.561Z,2.27
2018-12-04T03:49:52.519Z,1.80
2018-12-04T03:54:02.287Z,1.97
2018-12-04T03:58:10.113Z,2.17
2018-12-04T04:02:17.784Z,2.00
2018-12-04T04:06:25.385Z,1.90
2018-12-04T04:10:35.284Z,1.87
2018-12-04T04:15:25.084Z,1.83
2018-12-04T04:19:31.053Z,1.90
2018-12-04T04:23:36.850Z,1.85
2018-12-04T04:27:42.767Z,1.57
2018-12-04T04:31:48.857Z,1.65
2018-12-04T04:35:58.177Z,1.70
2018-12-04T04:40:05.629Z,1.50
2018-12-04T04:44:11.564Z,1.80
2018-12-04T04:48:17.512Z,1.40
2018-12-04T04:52:23.786Z,1.62
2018-12-04T04:56:29.912Z,1.30
2018-12-04T05:00:35.871Z,1.50
2018-12-04T05:04:42.144Z,1.80
2018-12-04T05:08:48.007Z,1.98
2018-12-04T05:12:54.918Z,1.75
2018-12-04T05:17:01.178Z,1.50
2018-12-04T05:21:07.249Z,1.82
2018-12-04T05:25:13.280Z,1.52
2018-12-04T05:29:19.175Z,2.00
2018-12-04T05:33:25.245Z,2.17
2018-12-04T05:37:31.447Z,1.60
2018-12-04T05:41:37.804Z,1.57
2018-12-04T05:45:43.620Z,1.90
2018-12-04T05:49:49.627Z,2.20
2018-12-04T05:53:55.372Z,3.02
2018-12-04T05:58:01.316Z,2.52
2018-12-04T06:02:07.356Z,2.15
2018-12-04T06:06:13.532Z,2.20
2018-12-04T06:10:19.504Z,2.47
2018-12-04T06:14:26.332Z,2.47
2018-12-04T06:18:32.363Z,3.12
2018-12-04T06:22:38.693Z,3.27
2018-12-04T06:26:44.629Z,16.30
2018-12-04T06:30:51.986Z,3.77
2018-12-04T06:34:59.247Z,3.05
2018-12-04T06:39:07.669Z,3.17
2018-12-04T06:43:14.374Z,3.52
2018-12-04T06:47:20.563Z,3.40
2018-12-04T06:51:26.517Z,4.25
2018-12-04T06:55:32.522Z,3.22
2018-12-04T06:59:38.504Z,3.62
2018-12-04T07:03:44.637Z,3.58
2018-12-04T07:07:53.276Z,4.20
2018-12-04T07:12:02.453Z,4.47
2018-12-04T07:16:08.629Z,4.37
2018-12-04T07:20:15.126Z,4.25
2018-12-04T07:24:22.265Z,5.12
2018-12-04T07:28:28.452Z,4.97
2018-12-04T07:32:38.717Z,5.05
2018-12-04T07:36:42.329Z,5.40
2018-12-04T07:40:48.629Z,6.12
2018-12-04T07:44:54.301Z,5.85
2018-12-04T07:49:01.343Z,5.72
2018-12-04T07:53:11.573Z,6.08
2018-12-04T08:01:40.790Z,6.00
2018-12-04T08:05:48.589Z,6.10
2018-12-04T08:09:54.955Z,5.70
2018-12-04T08:14:02.443Z,5.62
2018-12-04T08:18:07.973Z,5.47
2018-12-04T08:22:13.575Z,5.83
2018-12-04T08:26:19.388Z,6.12
2018-12-04T08:30:24.964Z,5.80
2018-12-04T08:34:30.660Z,5.28
2018-12-04T08:38:36.396Z,4.78
2018-12-04T08:42:42.078Z,4.62
2018-12-04T08:46:47.914Z,3.90
2018-12-04T08:50:53.862Z,4.40
2018-12-04T08:54:59.519Z,3.85
2018-12-04T08:59:05.462Z,4.08
2018-12-04T09:03:12.443Z,3.30
2018-12-04T09:07:21.567Z,4.08
2018-12-04T09:11:30.642Z,4.23
2018-12-04T09:15:38.100Z,3.75
2018-12-04T09:19:46.349Z,4.83
2018-12-04T09:23:53.721Z,5.13
2018-12-04T09:28:00.910Z,4.37
2018-12-04T09:32:07.168Z,4.37
2018-12-04T09:36:13.857Z,4.72
2018-12-04T09:40:19.451Z,4.10
2018-12-04T09:44:25.383Z,3.77
2018-12-04T09:48:31.464Z,3.83
2018-12-04T09:52:39.472Z,4.33
2018-12-04T09:56:45.317Z,3.77
2018-12-04T10:00:51.552Z,3.90
2018-12-04T10:04:58.375Z,4.10
2018-12-04T10:09:06.506Z,4.37
2018-12-04T10:13:13.108Z,3.90
2018-12-04T10:17:21.668Z,4.28
2018-12-04T10:21:29.299Z,4.40
2018-12-04T10:25:37.792Z,4.70
2018-12-04T10:29:45.321Z,3.92
2018-12-04T10:33:51.310Z,3.83
2018-12-04T10:38:00.459Z,4.92
2018-12-04T10:42:06.704Z,4.87
2018-12-04T10:46:12.539Z,4.17
2018-12-04T10:50:21.077Z,4.35
2018-12-04T10:54:27.036Z,4.37
2018-12-04T10:58:33.300Z,4.62
2018-12-04T11:02:47.947Z,3.87
2018-12-04T11:06:54.570Z,3.65
2018-12-04T11:11:01.060Z,3.98
2018-12-04T11:15:07.650Z,4.03
2018-12-04T11:19:14.667Z,3.62
2018-12-04T11:23:21.668Z,4.22
2018-12-04T11:27:33.908Z,3.80
2018-12-04T11:31:43.862Z,4.00
2018-12-04T11:35:56.318Z,3.35
2018-12-04T11:40:05.057Z,4.17
2018-12-04T11:44:11.996Z,3.58
2018-12-04T11:48:20.419Z,3.67
2018-12-04T11:52:29.633Z,3.70
2018-12-04T11:56:36.207Z,3.27
2018-12-04T12:00:46.466Z,2.85
2018-12-04T12:04:53.993Z,2.90
2018-12-04T12:09:04.176Z,2.72
2018-12-04T12:13:14.419Z,2.52
2018-12-04T12:17:21.672Z,3.05
2018-12-04T12:21:28.954Z,3.85
2018-12-04T12:25:35.121Z,3.42
2018-12-04T12:29:40.859Z,3.15
2018-12-04T12:33:46.647Z,2.65
2018-12-04T12:37:59.621Z,2.92
2018-12-04T12:42:08.156Z,2.50
2018-12-04T12:46:17.664Z,3.67
2018-12-04T12:50:23.843Z,3.52
2018-12-04T12:54:33.184Z,5.03
2018-12-04T12:58:50.742Z,4.03
2018-12-04T13:03:01.054Z,4.40
2018-12-04T13:07:10.538Z,4.20
2018-12-04T13:11:17.584Z,3.67
2018-12-04T13:15:26.369Z,3.53
2018-12-04T13:24:13.939Z,3.63
2018-12-04T13:28:21.858Z,3.95
2018-12-04T13:32:42.200Z,4.42
2018-12-04T13:41:40.006Z,4.83
2018-12-04T13:45:47.177Z,4.10
2018-12-04T13:50:00.124Z,3.67
2018-12-04T13:54:08.801Z,3.50
2018-12-04T13:58:15.552Z,4.12
2018-12-04T14:02:25.104Z,3.20
2018-12-04T14:06:31.349Z,2.73
2018-12-04T14:10:43.445Z,3.17
2018-12-04T14:14:52.423Z,3.50
2018-12-04T14:19:00.430Z,3.27
2018-12-04T14:23:06.993Z,3.67
2018-12-04T14:27:13.694Z,3.92
2018-12-04T14:31:25.563Z,4.75
2018-12-04T14:35:34.811Z,4.22
2018-12-04T14:39:57.881Z,3.60
2018-12-04T14:44:05.086Z,3.55
2018-12-04T14:48:14.549Z,3.77
2018-12-04T14:52:26.362Z,4.28
2018-12-04T14:56:33.266Z,4.60
2018-12-04T15:00:41.164Z,4.20
2018-12-04T15:04:48.280Z,4.08
2018-12-04T15:08:56.310Z,5.00
2018-12-04T15:13:02.961Z,3.85
2018-12-04T15:17:09.417Z,4.00
2018-12-04T15:21:15.363Z,5.30
2018-12-04T15:25:21.691Z,4.90
2018-12-04T15:29:27.416Z,4.28
2018-12-04T15:33:34.926Z,4.95
2018-12-04T15:37:42.175Z,5.20
2018-12-04T15:41:48.961Z,4.65
2018-12-04T15:45:57.027Z,5.42
2018-12-04T15:50:06.594Z,6.55
2018-12-04T15:54:12.788Z,5.53
2018-12-04T15:58:20.015Z,4.55
2018-12-04T16:02:26.692Z,5.30
2018-12-04T16:06:32.419Z,5.67
2018-12-04T16:10:39.777Z,6.08
2018-12-04T16:14:45.612Z,5.80
2018-12-04T16:18:51.576Z,7.10
2018-12-04T16:22:57.413Z,7.22
2018-12-04T16:27:03.381Z,6.70
2018-12-04T16:31:10.650Z,7.20
2018-12-04T16:35:16.329Z,8.35
2018-12-04T16:39:23.051Z,6.87
2018-12-04T16:43:29.245Z,6.00
2018-12-04T16:47:35.083Z,6.65
2018-12-04T16:51:40.768Z,5.40
2018-12-04T16:55:47.478Z,6.92
2018-12-04T16:59:56.208Z,5.47
2018-12-04T17:04:02.425Z,6.45
2018-12-04T17:08:08.189Z,9.23
2018-12-04T17:12:13.979Z,6.42
2018-12-04T17:16:19.655Z,5.83
2018-12-04T17:20:25.366Z,5.90
2018-12-04T17:24:31.201Z,6.87
2018-12-04T17:28:36.864Z,7.03
2018-12-04T17:32:42.647Z,5.80
2018-12-04T17:36:48.181Z,5.97
2018-12-04T17:40:54.331Z,5.72
2018-12-04T17:45:00.102Z,6.00
2018-12-04T17:49:05.837Z,5.92
2018-12-04T17:53:11.997Z,5.72
2018-12-04T17:57:17.814Z,6.05
2018-12-04T18:01:25.599Z,6.55
2018-12-04T18:05:33.276Z,8.43
2018-12-04T18:09:39.731Z,8.10
2018-12-04T18:13:47.410Z,8.88
2018-12-04T18:17:53.157Z,7.92
2018-12-04T18:21:58.937Z,7.78
2018-12-04T18:26:04.758Z,8.13
2018-12-04T18:30:10.511Z,8.98
2018-12-04T18:34:16.278Z,8.63
2018-12-04T18:38:25.246Z,8.98
2018-12-04T18:42:30.823Z,8.88
2018-12-04T18:46:36.476Z,8.90
2018-12-04T18:50:44.494Z,9.58
2018-12-04T18:54:53.878Z,8.88
2018-12-04T18:58:59.747Z,11.57
2018-12-04T19:03:07.554Z,8.95
2018-12-04T19:07:14.504Z,8.63
2018-12-04T19:11:21.551Z,9.95
2018-12-04T19:15:28.613Z,9.63
2018-12-04T19:19:35.858Z,10.63
2018-12-04T19:23:42.787Z,11.73
2018-12-04T19:27:49.718Z,10.85
2018-12-04T19:32:02.688Z,11.28
2018-12-04T19:36:09.302Z,12.13
2018-12-04T19:40:17.951Z,11.70
2018-12-04T19:44:24.163Z,10.75
2018-12-04T19:48:30.023Z,10.35
2018-12-04T19:52:38.294Z,10.10
2018-12-04T19:56:44.187Z,9.93
2018-12-04T20:00:50.171Z,9.73
2018-12-04T20:04:56.784Z,10.72
2018-12-04T20:09:05.841Z,12.30
2018-12-04T20:13:16.754Z,11.65
2018-12-04T20:17:23.069Z,10.15
2018-12-04T20:21:34.449Z,14.30
2018-12-04T20:25:40.801Z,11.43
2018-12-04T20:29:46.935Z,12.58
2018-12-04T20:33:57.212Z,14.85
2018-12-04T20:38:03.734Z,12.55
2018-12-04T20:42:12.163Z,12.95
2018-12-04T20:46:19.146Z,11.95
2018-12-04T20:50:27.808Z,12.98
2018-12-04T20:54:58.555Z,12.37
2018-12-04T20:59:07.254Z,10.93
2018-12-04T21:03:13.447Z,10.88
2018-12-04T21:07:20.571Z,11.55
2018-12-04T21:11:31.623Z,11.12
2018-12-04T21:15:41.392Z,11.38
2018-12-04T21:19:50.851Z,12.47
2018-12-04T21:23:58.908Z,12.07
2018-12-04T21:28:14.778Z,12.40
2018-12-04T21:32:27.885Z,12.70
2018-12-04T21:36:45.430Z,12.35
2018-12-04T21:41:03.519Z,15.15
2018-12-04T21:45:19.177Z,16.87
2018-12-04T21:49:27.019Z,17.45
2018-12-04T21:53:36.245Z,18.07
2018-12-04T21:57:42.167Z,18.82
2018-12-04T22:01:50.089Z,17.95
2018-12-04T22:05:57.213Z,17.48
2018-12-04T22:10:04.236Z,16.85
2018-12-04T22:14:10.389Z,14.85
2018-12-04T22:18:16.347Z,14.43
2018-12-04T22:22:22.419Z,13.48
2018-12-04T22:26:29.486Z,15.03
2018-12-04T22:30:35.714Z,14.33
2018-12-04T22:34:46.633Z,12.93
2018-12-04T22:38:52.586Z,13.58
2018-12-04T22:43:03.661Z,17.35
2018-12-04T22:47:09.813Z,14.83
2018-12-04T22:51:21.975Z,14.35
2018-12-04T22:55:31.163Z,17.45
2018-12-04T22:59:39.367Z,17.52
2018-12-04T23:03:53.919Z,16.05
2018-12-04T23:08:02.154Z,15.35
2018-12-04T23:12:15.543Z,14.70
2018-12-04T23:16:26.496Z,15.72
2018-12-04T23:20:32.573Z,14.55
2018-12-04T23:24:39.768Z,15.90
2018-12-04T23:28:45.829Z,14.38
2018-12-04T23:32:54.294Z,14.33
2018-12-04T23:37:01.368Z,14.73
2018-12-04T23:41:07.512Z,15.53
2018-12-04T23:45:14.796Z,15.10
2018-12-04T23:49:20.774Z,13.83
2018-12-04T23:53:26.738Z,14.53
2018-12-04T23:57:32.743Z,15.63
